sensor_id;sensor_type;location;lat;lon;timestamp;pressure;altitude;pressure_sealevel;temperature;humidity
53719;BME280;39616;48.872;9.390;2024-01-30T00:01:29;99712.00;;;0.85;100.00
53719;BME280;39616;48.872;9.390;2024-01-30T00:04:00;99715.84;;;0.76;100.00
53719;BME280;39616;48.872;9.390;2024-01-30T00:06:30;99707.44;;;0.79;100.00
53719;BME280;39616;48.872;9.390;2024-01-30T00:09:01;99712.97;;;0.77;100.00
53719;BME280;39616;48.872;9.390;2024-01-30T00:11:31;99719.78;;;0.80;100.00
53719;BME280;39616;48.872;9.390;2024-01-30T00:14:02;99705.56;;;0.72;100.00
53719;BME280;39616;48.872;9.390;2024-01-30T00:16:33;99709.66;;;0.68;100.00
53719;BME280;39616;48.872;9.390;2024-01-30T00:19:04;99706.16;;;0.68;100.00
53719;BME280;39616;48.872;9.390;2024-01-30T00:21:34;99707.59;;;0.64;100.00
53719;BME280;39616;48.872;9.390;2024-01-30T00:24:04;99706.78;;;0.63;100.00
53719;BME280;39616;48.872;9.390;2024-01-30T00:26:35;99712.50;;;0.60;100.00
53719;BME280;39616;48.872;9.390;2024-01-30T00:29:05;99708.75;;;0.55;100.00
53719;BME280;39616;48.872;9.390;2024-01-30T00:31:36;99705.88;;;0.50;100.00
53719;BME280;39616;48.872;9.390;2024-01-30T00:34:06;99710.34;;;0.42;100.00
53719;BME280;39616;48.872;9.390;2024-01-30T00:36:37;99708.31;;;0.51;100.00
53719;BME280;39616;48.872;9.390;2024-01-30T00:39:07;99710.81;;;0.53;100.00
53719;BME280;39616;48.872;9.390;2024-01-30T00:41:39;99712.66;;;0.52;100.00
53719;BME280;39616;48.872;9.390;2024-01-30T00:44:09;99707.34;;;0.52;100.00
53719;BME280;39616;48.872;9.390;2024-01-30T00:46:39;99704.44;;;0.54;100.00
53719;BME280;39616;48.872;9.390;2024-01-30T00:49:10;99704.25;;;0.55;100.00
53719;BME280;39616;48.872;9.390;2024-01-30T00:51:40;99699.31;;;0.52;100.00
53719;BME280;39616;48.872;9.390;2024-01-30T00:54:11;99705.28;;;0.54;100.00
53719;BME280;39616;48.872;9.390;2024-01-30T00:56:41;99705.91;;;0.56;100.00
53719;BME280;39616;48.872;9.390;2024-01-30T00:59:11;99712.50;;;0.60;100.00
53719;BME280;39616;48.872;9.390;2024-01-30T01:01:42;99710.66;;;0.61;100.00
53719;BME280;39616;48.872;9.390;2024-01-30T01:04:12;99708.19;;;0.66;100.00
53719;BME280;39616;48.872;9.390;2024-01-30T01:06:42;99701.19;;;0.58;100.00
53719;BME280;39616;48.872;9.390;2024-01-30T01:09:14;99707.81;;;0.69;100.00
53719;BME280;39616;48.872;9.390;2024-01-30T01:11:44;99707.41;;;0.72;100.00
53719;BME280;39616;48.872;9.390;2024-01-30T01:14:14;99707.03;;;0.75;100.00
53719;BME280;39616;48.872;9.390;2024-01-30T01:16:45;99717.53;;;0.83;100.00
53719;BME280;39616;48.872;9.390;2024-01-30T01:19:15;99717.09;;;0.80;100.00
53719;BME280;39616;48.872;9.390;2024-01-30T01:21:45;99717.47;;;0.70;100.00
53719;BME280;39616;48.872;9.390;2024-01-30T01:24:16;99715.84;;;0.76;100.00
53719;BME280;39616;48.872;9.390;2024-01-30T01:26:46;99707.63;;;0.70;100.00
53719;BME280;39616;48.872;9.390;2024-01-30T01:29:16;99717.47;;;0.70;100.00
53719;BME280;39616;48.872;9.390;2024-01-30T01:31:47;99709.06;;;0.73;100.00
53719;BME280;39616;48.872;9.390;2024-01-30T01:34:17;99714.44;;;0.80;100.00
53719;BME280;39616;48.872;9.390;2024-01-30T01:36:47;99706.22;;;0.81;100.00
53719;BME280;39616;48.872;9.390;2024-01-30T01:39:18;99710.13;;;0.79;100.00
53719;BME280;39616;48.872;9.390;2024-01-30T01:41:48;99698.38;;;0.73;100.00
53719;BME280;39616;48.872;9.390;2024-01-30T01:44:18;99707.84;;;0.76;100.00
53719;BME280;39616;48.872;9.390;2024-01-30T01:46:49;99702.44;;;0.62;100.00
53719;BME280;39616;48.872;9.390;2024-01-30T01:49:25;99710.88;;;0.66;100.00
53719;BME280;39616;48.872;9.390;2024-01-30T01:51:58;99707.81;;;0.69;100.00
53719;BME280;39616;48.872;9.390;2024-01-30T01:54:28;99704.75;;;0.72;100.00
53719;BME280;39616;48.872;9.390;2024-01-30T01:56:59;99700.19;;;0.66;100.00
53719;BME280;39616;48.872;9.390;2024-01-30T01:59:30;99709.19;;;0.58;100.00
53719;BME280;39616;48.872;9.390;2024-01-30T02:02:02;99706.31;;;0.53;100.00
53719;BME280;39616;48.872;9.390;2024-01-30T02:04:33;99708.16;;;0.53;100.00
53719;BME280;39616;48.872;9.390;2024-01-30T02:07:03;99704.41;;;0.47;100.00
53719;BME280;39616;48.872;9.390;2024-01-30T02:09:34;99718.19;;;0.51;100.00
53719;BME280;39616;48.872;9.390;2024-01-30T02:12:04;99709.41;;;0.57;100.00
53719;BME280;39616;48.872;9.390;2024-01-30T02:14:47;99711.00;;;0.51;100.00
53719;BME280;39616;48.872;9.390;2024-01-30T02:17:18;99710.78;;;0.46;100.00
53719;BME280;39616;48.872;9.390;2024-01-30T02:19:48;99702.94;;;0.38;100.00
53719;BME280;39616;48.872;9.390;2024-01-30T02:22:19;99712.53;;;0.32;100.00
53719;BME280;39616;48.872;9.390;2024-01-30T02:24:50;99703.94;;;0.37;100.00
53719;BME280;39616;48.872;9.390;2024-01-30T02:27:20;99711.94;;;0.37;100.00
53719;BME280;39616;48.872;9.390;2024-01-30T02:29:50;99709.69;;;0.34;100.00
53719;BME280;39616;48.872;9.390;2024-01-30T02:32:21;99706.59;;;0.37;100.00
53719;BME280;39616;48.872;9.390;2024-01-30T02:34:51;99701.69;;;0.34;100.00
53719;BME280;39616;48.872;9.390;2024-01-30T02:37:21;99712.31;;;0.27;100.00
53719;BME280;39616;48.872;9.390;2024-01-30T02:39:52;99698.50;;;0.17;100.00
53719;BME280;39616;48.872;9.390;2024-01-30T02:42:24;99703.00;;;0.16;100.00
53719;BME280;39616;48.872;9.390;2024-01-30T02:44:55;99703.59;;;0.12;100.00
53719;BME280;39616;48.872;9.390;2024-01-30T02:47:25;99706.81;;;0.07;100.00
53719;BME280;39616;48.872;9.390;2024-01-30T02:49:55;99703.63;;;0.18;100.00
53719;BME280;39616;48.872;9.390;2024-01-30T02:52:26;99706.25;;;0.12;100.00
53719;BME280;39616;48.872;9.390;2024-01-30T02:54:56;99697.63;;;0.10;100.00
53719;BME280;39616;48.872;9.390;2024-01-30T02:57:26;99700.72;;;0.13;100.00
53719;BME280;39616;48.872;9.390;2024-01-30T02:59:56;99707.69;;;0.08;100.00
53719;BME280;39616;48.872;9.390;2024-01-30T03:02:27;99702.72;;;0.05;100.00
53719;BME280;39616;48.872;9.390;2024-01-30T03:04:57;99704.97;;;0.01;100.00
53719;BME280;39616;48.872;9.390;2024-01-30T03:07:27;99702.28;;;0.01;100.00
53719;BME280;39616;48.872;9.390;2024-01-30T03:09:58;99696.13;;;0.01;100.00
53719;BME280;39616;48.872;9.390;2024-01-30T03:12:28;99695.88;;;-0.05;100.00
53719;BME280;39616;48.872;9.390;2024-01-30T03:14:58;99709.59;;;-0.08;100.00
53719;BME280;39616;48.872;9.390;2024-01-30T03:17:29;99702.03;;;-0.04;100.00
53719;BME280;39616;48.872;9.390;2024-01-30T03:19:59;99706.97;;;-0.01;100.00
53719;BME280;39616;48.872;9.390;2024-01-30T03:22:29;99706.38;;;-0.03;100.00
53719;BME280;39616;48.872;9.390;2024-01-30T03:25:00;99714.00;;;0.07;100.00
53719;BME280;39616;48.872;9.390;2024-01-30T03:27:30;99710.72;;;0.05;100.00
53719;BME280;39616;48.872;9.390;2024-01-30T03:30:00;99711.34;;;0.07;100.00
53719;BME280;39616;48.872;9.390;2024-01-30T03:32:30;99711.78;;;0.10;100.00
53719;BME280;39616;48.872;9.390;2024-01-30T03:35:01;99717.66;;;-0.01;100.00
53719;BME280;39616;48.872;9.390;2024-01-30T03:37:31;99711.69;;;-0.03;100.00
53719;BME280;39616;48.872;9.390;2024-01-30T03:40:02;99709.59;;;-0.08;100.00
53719;BME280;39616;48.872;9.390;2024-01-30T03:42:33;99714.47;;;-0.18;100.00
53719;BME280;39616;48.872;9.390;2024-01-30T03:45:04;99714.47;;;-0.18;100.00
53719;BME280;39616;48.872;9.390;2024-01-30T03:47:34;99715.22;;;-0.24;100.00
53719;BME280;39616;48.872;9.390;2024-01-30T03:50:04;99716.84;;;-0.23;100.00
53719;BME280;39616;48.872;9.390;2024-01-30T03:52:35;99707.44;;;-0.26;100.00
53719;BME280;39616;48.872;9.390;2024-01-30T03:55:05;99708.19;;;-0.32;100.00
53719;BME280;39616;48.872;9.390;2024-01-30T03:57:36;99716.75;;;-0.36;100.00
53719;BME280;39616;48.872;9.390;2024-01-30T04:00:06;99706.78;;;-0.28;100.00
53719;BME280;39616;48.872;9.390;2024-01-30T04:02:37;99716.78;;;-0.30;100.00
53719;BME280;39616;48.872;9.390;2024-01-30T04:05:07;99716.63;;;-0.28;100.00
53719;BME280;39616;48.872;9.390;2024-01-30T04:07:38;99723.78;;;-0.29;100.00
53719;BME280;39616;48.872;9.390;2024-01-30T04:10:09;99722.56;;;-0.26;100.00
53719;BME280;39616;48.872;9.390;2024-01-30T04:12:39;99725.88;;;-0.24;100.00
53719;BME280;39616;48.872;9.390;2024-01-30T04:15:10;99722.84;;;-0.21;100.00
53719;BME280;39616;48.872;9.390;2024-01-30T04:17:40;99726.31;;;-0.20;100.00
53719;BME280;39616;48.872;9.390;2024-01-30T04:20:14;99726.25;;;-0.27;100.00
53719;BME280;39616;48.872;9.390;2024-01-30T04:22:45;99722.56;;;-0.26;100.00
53719;BME280;39616;48.872;9.390;2024-01-30T04:25:16;99730.13;;;-0.30;100.00
53719;BME280;39616;48.872;9.390;2024-01-30T04:27:47;99721.06;;;-0.35;100.00
53719;BME280;39616;48.872;9.390;2024-01-30T04:30:17;99720.25;;;-0.36;100.00
53719;BME280;39616;48.872;9.390;2024-01-30T04:32:48;99720.38;;;-0.44;100.00
53719;BME280;39616;48.872;9.390;2024-01-30T04:35:18;99710.28;;;-0.49;100.00
53719;BME280;39616;48.872;9.390;2024-01-30T04:37:52;99719.50;;;-0.51;100.00
53719;BME280;39616;48.872;9.390;2024-01-30T04:40:23;99715.44;;;-0.68;100.00
53719;BME280;39616;48.872;9.390;2024-01-30T04:42:53;99711.16;;;-0.63;100.00
53719;BME280;39616;48.872;9.390;2024-01-30T04:45:24;99714.78;;;-0.70;100.00
53719;BME280;39616;48.872;9.390;2024-01-30T04:47:54;99712.31;;;-0.72;100.00
53719;BME280;39616;48.872;9.390;2024-01-30T04:50:24;99712.56;;;-0.67;100.00
53719;BME280;39616;48.872;9.390;2024-01-30T04:52:56;99707.31;;;-0.60;100.00
53719;BME280;39616;48.872;9.390;2024-01-30T04:55:27;99704.25;;;-0.57;100.00
53719;BME280;39616;48.872;9.390;2024-01-30T04:57:57;99701.78;;;-0.59;100.00
53719;BME280;39616;48.872;9.390;2024-01-30T05:00:27;99708.78;;;-0.58;100.00
53719;BME280;39616;48.872;9.390;2024-01-30T05:02:57;99708.56;;;-0.56;100.00
53719;BME280;39616;48.872;9.390;2024-01-30T05:05:28;99707.13;;;-0.59;100.00
53719;BME280;39616;48.872;9.390;2024-01-30T05:07:58;99710.41;;;-0.57;100.00
53719;BME280;39616;48.872;9.390;2024-01-30T05:10:28;99707.81;;;-0.50;100.00
53719;BME280;39616;48.872;9.390;2024-01-30T05:12:59;99710.47;;;-0.50;100.00
53719;BME280;39616;48.872;9.390;2024-01-30T05:15:30;99704.78;;;-0.47;100.00
53719;BME280;39616;48.872;9.390;2024-01-30T05:18:00;99706.78;;;-0.49;100.00
53719;BME280;39616;48.872;9.390;2024-01-30T05:20:30;99707.22;;;-0.45;100.00
53719;BME280;39616;48.872;9.390;2024-01-30T05:23:00;99716.50;;;-0.41;100.00
53719;BME280;39616;48.872;9.390;2024-01-30T05:25:31;99716.13;;;-0.38;100.00
53719;BME280;39616;48.872;9.390;2024-01-30T05:28:01;99716.34;;;-0.33;100.00
53719;BME280;39616;48.872;9.390;2024-01-30T05:30:31;99725.13;;;-0.39;100.00
53719;BME280;39616;48.872;9.390;2024-01-30T05:33:02;99715.66;;;-0.42;100.00
53719;BME280;39616;48.872;9.390;2024-01-30T05:35:32;99720.19;;;-0.42;100.00
53719;BME280;39616;48.872;9.390;2024-01-30T05:38:03;99719.97;;;-0.41;100.00
53719;BME280;39616;48.872;9.390;2024-01-30T05:40:33;99717.31;;;-0.41;100.00
53719;BME280;39616;48.872;9.390;2024-01-30T05:43:03;99725.75;;;-0.37;100.00
53719;BME280;39616;48.872;9.390;2024-01-30T05:45:34;99722.63;;;-0.41;100.00
53719;BME280;39616;48.872;9.390;2024-01-30T05:48:07;99729.00;;;-0.42;100.00
53719;BME280;39616;48.872;9.390;2024-01-30T05:50:37;99729.19;;;-0.43;100.00
53719;BME280;39616;48.872;9.390;2024-01-30T05:53:07;99728.75;;;-0.47;100.00
53719;BME280;39616;48.872;9.390;2024-01-30T05:55:38;99733.06;;;-0.46;100.00
53719;BME280;39616;48.872;9.390;2024-01-30T05:58:08;99725.06;;;-0.46;100.00
53719;BME280;39616;48.872;9.390;2024-01-30T06:00:38;99738.38;;;-0.46;100.00
53719;BME280;39616;48.872;9.390;2024-01-30T06:03:09;99730.59;;;-0.47;100.00
53719;BME280;39616;48.872;9.390;2024-01-30T06:05:39;99731.88;;;-0.43;100.00
53719;BME280;39616;48.872;9.390;2024-01-30T06:08:09;99731.88;;;-0.43;100.00
53719;BME280;39616;48.872;9.390;2024-01-30T06:10:40;99732.25;;;-0.46;100.00
53719;BME280;39616;48.872;9.390;2024-01-30T06:13:10;99735.97;;;-0.41;100.00
53719;BME280;39616;48.872;9.390;2024-01-30T06:15:40;99733.94;;;-0.39;100.00
53719;BME280;39616;48.872;9.390;2024-01-30T06:18:11;99729.44;;;-0.38;100.00
53719;BME280;39616;48.872;9.390;2024-01-30T06:20:41;99727.47;;;-0.30;100.00
53719;BME280;39616;48.872;9.390;2024-01-30T06:23:12;99728.84;;;-0.34;100.00
53719;BME280;39616;48.872;9.390;2024-01-30T06:25:43;99724.94;;;-0.38;100.00
53719;BME280;39616;48.872;9.390;2024-01-30T06:28:13;99726.16;;;-0.40;100.00
53719;BME280;39616;48.872;9.390;2024-01-30T06:30:43;99727.81;;;-0.39;100.00
53719;BME280;39616;48.872;9.390;2024-01-30T06:33:14;99726.03;;;-0.32;100.00
53719;BME280;39616;48.872;9.390;2024-01-30T06:35:44;99739.53;;;-0.34;100.00
53719;BME280;39616;48.872;9.390;2024-01-30T06:38:15;99735.44;;;-0.30;100.00
53719;BME280;39616;48.872;9.390;2024-01-30T06:40:46;99737.19;;;-0.22;100.00
53719;BME280;39616;48.872;9.390;2024-01-30T06:43:16;99737.13;;;-0.29;100.00
53719;BME280;39616;48.872;9.390;2024-01-30T06:45:46;99739.84;;;-0.22;100.00
53719;BME280;39616;48.872;9.390;2024-01-30T06:48:17;99740.72;;;-0.15;100.00
53719;BME280;39616;48.872;9.390;2024-01-30T06:50:47;99728.59;;;-0.17;100.00
53719;BME280;39616;48.872;9.390;2024-01-30T06:53:18;99735.81;;;-0.11;100.00
53719;BME280;39616;48.872;9.390;2024-01-30T06:55:48;99739.50;;;-0.12;100.00
53719;BME280;39616;48.872;9.390;2024-01-30T06:58:18;99743.38;;;-0.15;100.00
53719;BME280;39616;48.872;9.390;2024-01-30T07:00:48;99733.72;;;-0.16;100.00
53719;BME280;39616;48.872;9.390;2024-01-30T07:03:19;99739.88;;;-0.15;100.00
53719;BME280;39616;48.872;9.390;2024-01-30T07:05:49;99746.47;;;-0.11;100.00
53719;BME280;39616;48.872;9.390;2024-01-30T07:08:19;99737.50;;;-0.10;100.00
53719;BME280;39616;48.872;9.390;2024-01-30T07:10:50;99742.25;;;-0.06;100.00
53719;BME280;39616;48.872;9.390;2024-01-30T07:13:25;99744.69;;;-0.04;100.00
53719;BME280;39616;48.872;9.390;2024-01-30T07:15:55;99746.53;;;-0.05;100.00
53719;BME280;39616;48.872;9.390;2024-01-30T07:18:25;99749.66;;;-0.01;100.00
53719;BME280;39616;48.872;9.390;2024-01-30T07:20:56;99749.41;;;-0.06;100.00
53719;BME280;39616;48.872;9.390;2024-01-30T07:23:26;99756.16;;;-0.10;100.00
53719;BME280;39616;48.872;9.390;2024-01-30T07:25:56;99752.69;;;-0.04;100.00
53719;BME280;39616;48.872;9.390;2024-01-30T07:28:27;99752.75;;;0.03;100.00
53719;BME280;39616;48.872;9.390;2024-01-30T07:30:57;99756.34;;;0.16;100.00
53719;BME280;39616;48.872;9.390;2024-01-30T07:33:27;99757.03;;;0.25;100.00
53719;BME280;39616;48.872;9.390;2024-01-30T07:35:57;99754.41;;;0.32;100.00
53719;BME280;39616;48.872;9.390;2024-01-30T07:38:28;99755.28;;;0.39;100.00
53719;BME280;39616;48.872;9.390;2024-01-30T07:41:01;99755.13;;;0.47;100.00
53719;BME280;39616;48.872;9.390;2024-01-30T07:43:31;99756.00;;;0.54;100.00
53719;BME280;39616;48.872;9.390;2024-01-30T07:46:03;99755.44;;;0.65;100.00
53719;BME280;39616;48.872;9.390;2024-01-30T07:48:33;99749.09;;;0.73;100.00
53719;BME280;39616;48.872;9.390;2024-01-30T07:51:04;99758.63;;;0.82;100.00
53719;BME280;39616;48.872;9.390;2024-01-30T07:53:34;99750.66;;;0.89;100.00
53719;BME280;39616;48.872;9.390;2024-01-30T07:56:05;99752.06;;;0.91;100.00
53719;BME280;39616;48.872;9.390;2024-01-30T07:58:36;99761.59;;;1.07;100.00
53719;BME280;39616;48.872;9.390;2024-01-30T08:01:07;99758.94;;;1.07;100.00
53719;BME280;39616;48.872;9.390;2024-01-30T08:03:37;99768.59;;;1.08;100.00
53719;BME280;39616;48.872;9.390;2024-01-30T08:06:10;99762.09;;;1.31;100.00
53719;BME280;39616;48.872;9.390;2024-01-30T08:08:40;99759.03;;;1.40;100.00
53719;BME280;39616;48.872;9.390;2024-01-30T08:11:10;99757.19;;;1.54;100.00
53719;BME280;39616;48.872;9.390;2024-01-30T08:13:41;99755.59;;;1.60;100.00
53719;BME280;39616;48.872;9.390;2024-01-30T08:16:11;99753.31;;;1.63;100.00
53719;BME280;39616;48.872;9.390;2024-01-30T08:18:42;99755.00;;;1.84;100.00
53719;BME280;39616;48.872;9.390;2024-01-30T08:21:12;99748.00;;;2.03;100.00
53719;BME280;39616;48.872;9.390;2024-01-30T08:23:42;99746.34;;;2.22;100.00
53719;BME280;39616;48.872;9.390;2024-01-30T08:26:13;99746.31;;;2.49;100.00
53719;BME280;39616;48.872;9.390;2024-01-30T08:28:43;99752.00;;;2.79;100.00
53719;BME280;39616;48.872;9.390;2024-01-30T08:31:14;99748.59;;;3.10;100.00
53719;BME280;39616;48.872;9.390;2024-01-30T08:33:44;99756.69;;;3.35;96.53
53719;BME280;39616;48.872;9.390;2024-01-30T08:36:15;99757.75;;;3.34;94.26
53719;BME280;39616;48.872;9.390;2024-01-30T08:38:46;99752.50;;;3.52;93.92
53719;BME280;39616;48.872;9.390;2024-01-30T08:41:16;99755.38;;;3.57;93.04
53719;BME280;39616;48.872;9.390;2024-01-30T08:43:46;99759.16;;;3.75;92.72
53719;BME280;39616;48.872;9.390;2024-01-30T08:46:18;99746.81;;;4.24;90.14
53719;BME280;39616;48.872;9.390;2024-01-30T08:48:48;99746.78;;;4.67;87.62
53719;BME280;39616;48.872;9.390;2024-01-30T08:51:18;99746.13;;;4.90;87.66
53719;BME280;39616;48.872;9.390;2024-01-30T08:53:49;99749.75;;;5.14;84.30
53719;BME280;39616;48.872;9.390;2024-01-30T08:56:19;99746.31;;;5.55;84.26
53719;BME280;39616;48.872;9.390;2024-01-30T08:58:49;99743.56;;;5.74;81.68
53719;BME280;39616;48.872;9.390;2024-01-30T09:01:20;99750.16;;;5.90;80.35
53719;BME280;39616;48.872;9.390;2024-01-30T09:03:50;99753.44;;;5.92;80.01
53719;BME280;39616;48.872;9.390;2024-01-30T09:06:20;99759.84;;;6.21;80.15
53719;BME280;39616;48.872;9.390;2024-01-30T09:08:50;99757.38;;;6.19;79.57
53719;BME280;39616;48.872;9.390;2024-01-30T09:11:21;99748.69;;;6.29;78.41
53719;BME280;39616;48.872;9.390;2024-01-30T09:13:51;99750.25;;;6.48;77.73
53719;BME280;39616;48.872;9.390;2024-01-30T09:16:21;99761.16;;;6.42;77.31
53719;BME280;39616;48.872;9.390;2024-01-30T09:18:51;99757.38;;;6.66;76.87
53719;BME280;39616;48.872;9.390;2024-01-30T09:21:22;99756.56;;;6.66;77.24
53719;BME280;39616;48.872;9.390;2024-01-30T09:23:54;99764.03;;;6.87;77.02
53719;BME280;39616;48.872;9.390;2024-01-30T09:26:24;99759.31;;;7.06;76.19
53719;BME280;39616;48.872;9.390;2024-01-30T09:28:55;99761.56;;;7.38;74.92
53719;BME280;39616;48.872;9.390;2024-01-30T09:31:25;99764.06;;;7.56;74.52
53719;BME280;39616;48.872;9.390;2024-01-30T09:33:55;99760.75;;;7.83;73.94
53719;BME280;39616;48.872;9.390;2024-01-30T09:36:26;99749.09;;;8.11;72.25
53719;BME280;39616;48.872;9.390;2024-01-30T09:38:57;99760.13;;;7.92;72.30
53719;BME280;39616;48.872;9.390;2024-01-30T09:41:29;99759.69;;;7.84;72.01
53719;BME280;39616;48.872;9.390;2024-01-30T09:44:01;99766.31;;;7.76;72.61
53719;BME280;39616;48.872;9.390;2024-01-30T09:46:33;99772.50;;;7.88;72.14
53719;BME280;39616;48.872;9.390;2024-01-30T09:49:04;99774.53;;;7.53;74.03
53719;BME280;39616;48.872;9.390;2024-01-30T09:51:36;99772.53;;;7.77;74.15
53719;BME280;39616;48.872;9.390;2024-01-30T09:54:08;99765.84;;;7.79;74.74
53719;BME280;39616;48.872;9.390;2024-01-30T09:56:39;99773.41;;;8.11;72.76
53719;BME280;39616;48.872;9.390;2024-01-30T09:59:10;99768.75;;;8.23;72.24
53719;BME280;39616;48.872;9.390;2024-01-30T10:01:40;99764.03;;;8.47;71.50
53719;BME280;39616;48.872;9.390;2024-01-30T10:04:12;99756.56;;;8.76;70.51
53719;BME280;39616;48.872;9.390;2024-01-30T10:06:43;99761.06;;;9.09;69.99
53719;BME280;39616;48.872;9.390;2024-01-30T10:09:13;99761.00;;;9.26;68.53
53719;BME280;39616;48.872;9.390;2024-01-30T10:11:43;99760.78;;;9.06;68.90
53719;BME280;39616;48.872;9.390;2024-01-30T10:14:15;99758.28;;;8.82;70.48
53719;BME280;39616;48.872;9.390;2024-01-30T10:16:46;99754.09;;;8.91;70.13
53719;BME280;39616;48.872;9.390;2024-01-30T10:19:16;99759.44;;;8.86;70.60
53719;BME280;39616;48.872;9.390;2024-01-30T10:21:46;99753.63;;;8.78;70.16
53719;BME280;39616;48.872;9.390;2024-01-30T10:24:17;99755.72;;;8.92;70.49
53719;BME280;39616;48.872;9.390;2024-01-30T10:26:47;99748.88;;;9.07;70.42
53719;BME280;39616;48.872;9.390;2024-01-30T10:29:17;99751.63;;;9.34;69.82
53719;BME280;39616;48.872;9.390;2024-01-30T10:32:01;99749.91;;;9.28;69.36
53719;BME280;39616;48.872;9.390;2024-01-30T10:34:33;99746.31;;;9.17;68.77
53719;BME280;39616;48.872;9.390;2024-01-30T10:37:09;99744.72;;;8.99;70.33
53719;BME280;39616;48.872;9.390;2024-01-30T10:39:45;99745.56;;;9.49;69.95
53719;BME280;39616;48.872;9.390;2024-01-30T10:42:18;99738.69;;;9.63;69.22
53719;BME280;39616;48.872;9.390;2024-01-30T10:45:07;99741.66;;;9.61;68.57
53719;BME280;39616;48.872;9.390;2024-01-30T10:47:40;99737.81;;;9.57;68.73
53719;BME280;39616;48.872;9.390;2024-01-30T10:50:11;99729.56;;;9.74;69.03
53719;BME280;39616;48.872;9.390;2024-01-30T10:52:42;99729.97;;;9.61;70.28
53719;BME280;39616;48.872;9.390;2024-01-30T10:55:13;99725.66;;;9.87;70.01
53719;BME280;39616;48.872;9.390;2024-01-30T10:57:45;99724.97;;;9.75;69.33
53719;BME280;39616;48.872;9.390;2024-01-30T11:00:16;99729.56;;;9.74;69.21
53719;BME280;39616;48.872;9.390;2024-01-30T11:02:47;99722.34;;;9.85;69.34
53719;BME280;39616;48.872;9.390;2024-01-30T11:05:24;99725.38;;;9.88;68.85
53719;BME280;39616;48.872;9.390;2024-01-30T11:07:56;99734.44;;;10.36;68.16
53719;BME280;39616;48.872;9.390;2024-01-30T11:10:27;99723.13;;;10.45;68.33
53719;BME280;39616;48.872;9.390;2024-01-30T11:12:57;99720.75;;;10.53;67.89
53719;BME280;39616;48.872;9.390;2024-01-30T11:15:28;99717.47;;;10.51;68.77
53719;BME280;39616;48.872;9.390;2024-01-30T11:17:58;99718.25;;;10.47;69.00
53719;BME280;39616;48.872;9.390;2024-01-30T11:20:32;99716.66;;;10.51;69.11
53719;BME280;39616;48.872;9.390;2024-01-30T11:23:02;99720.81;;;10.26;69.64
53719;BME280;39616;48.872;9.390;2024-01-30T11:25:36;99716.50;;;10.30;69.90
53719;BME280;39616;48.872;9.390;2024-01-30T11:28:13;99714.34;;;10.27;69.54
53719;BME280;39616;48.872;9.390;2024-01-30T11:30:44;99715.78;;;10.40;68.70
53719;BME280;39616;48.872;9.390;2024-01-30T11:33:27;99719.34;;;10.46;69.06
53719;BME280;39616;48.872;9.390;2024-01-30T11:36:00;99711.22;;;10.46;68.98
53719;BME280;39616;48.872;9.390;2024-01-30T11:38:31;99711.53;;;10.22;70.26
53719;BME280;39616;48.872;9.390;2024-01-30T11:41:02;99708.50;;;10.46;69.88
53719;BME280;39616;48.872;9.390;2024-01-30T11:43:33;99705.16;;;10.33;70.24
53719;BME280;39616;48.872;9.390;2024-01-30T11:46:07;99706.53;;;10.41;69.62
53719;BME280;39616;48.872;9.390;2024-01-30T11:48:37;99701.19;;;10.51;69.49
53719;BME280;39616;48.872;9.390;2024-01-30T11:51:07;99703.16;;;10.61;68.69
53719;BME280;39616;48.872;9.390;2024-01-30T11:53:38;99699.06;;;10.58;67.51
53719;BME280;39616;48.872;9.390;2024-01-30T11:56:08;99699.91;;;10.64;67.23
53719;BME280;39616;48.872;9.390;2024-01-30T11:58:42;99693.91;;;10.57;66.36
53719;BME280;39616;48.872;9.390;2024-01-30T12:01:12;99689.03;;;10.59;63.90
53719;BME280;39616;48.872;9.390;2024-01-30T12:03:49;99696.38;;;10.63;65.81
53719;BME280;39616;48.872;9.390;2024-01-30T12:06:19;99687.69;;;10.61;65.90
53719;BME280;39616;48.872;9.390;2024-01-30T12:12:16;99689.69;;;10.81;66.83
53719;BME280;39616;48.872;9.390;2024-01-30T12:14:47;99683.38;;;10.71;65.82
53719;BME280;39616;48.872;9.390;2024-01-30T12:17:31;99678.81;;;10.76;65.78
53719;BME280;39616;48.872;9.390;2024-01-30T12:20:10;99679.91;;;10.75;65.88
53719;BME280;39616;48.872;9.390;2024-01-30T12:22:43;99672.06;;;10.84;64.55
53719;BME280;39616;48.872;9.390;2024-01-30T12:25:15;99672.34;;;10.93;63.60
53719;BME280;39616;48.872;9.390;2024-01-30T12:27:47;99666.94;;;10.93;63.28
53719;BME280;39616;48.872;9.390;2024-01-30T12:30:22;99659.63;;;11.03;63.44
53719;BME280;39616;48.872;9.390;2024-01-30T12:32:52;99665.38;;;11.17;63.17
53719;BME280;39616;48.872;9.390;2024-01-30T12:35:23;99662.59;;;10.86;63.01
53719;BME280;39616;48.872;9.390;2024-01-30T12:37:53;99656.63;;;11.00;63.53
53719;BME280;39616;48.872;9.390;2024-01-30T12:40:24;99668.63;;;11.14;63.43
53719;BME280;39616;48.872;9.390;2024-01-30T12:42:56;99659.72;;;11.24;63.03
53719;BME280;39616;48.872;9.390;2024-01-30T12:45:26;99656.72;;;11.20;63.19
53719;BME280;39616;48.872;9.390;2024-01-30T12:47:57;99657.81;;;11.29;62.72
53719;BME280;39616;48.872;9.390;2024-01-30T12:50:28;99658.34;;;11.26;62.69
53719;BME280;39616;48.872;9.390;2024-01-30T12:52:58;99658.88;;;11.18;62.43
53719;BME280;39616;48.872;9.390;2024-01-30T12:55:32;99661.91;;;11.27;63.06
53719;BME280;39616;48.872;9.390;2024-01-30T12:58:02;99666.19;;;11.18;63.81
53719;BME280;39616;48.872;9.390;2024-01-30T13:00:33;99660.81;;;11.28;63.96
53719;BME280;39616;48.872;9.390;2024-01-30T13:03:04;99659.69;;;11.19;64.04
53719;BME280;39616;48.872;9.390;2024-01-30T13:05:35;99665.66;;;11.21;64.33
53719;BME280;39616;48.872;9.390;2024-01-30T13:08:08;99665.63;;;11.16;64.64
53719;BME280;39616;48.872;9.390;2024-01-30T13:10:39;99667.53;;;11.10;64.66
53719;BME280;39616;48.872;9.390;2024-01-30T13:13:09;99671.91;;;11.16;64.95
53719;BME280;39616;48.872;9.390;2024-01-30T13:15:39;99664.50;;;10.91;67.66
53719;BME280;39616;48.872;9.390;2024-01-30T13:18:10;99665.59;;;10.95;68.24
53719;BME280;39616;48.872;9.390;2024-01-30T13:20:40;99673.75;;;11.00;66.56
53719;BME280;39616;48.872;9.390;2024-01-30T13:23:10;99669.34;;;10.89;66.77